Pagina principală
METAR-TAF:

METAR-TAF

Aeroporturi :

Malakula, Vanuatu

Latitudine: 16-27-26S, longitudine: 167-49-42E, elevație: 2 m

METAR: lipsă

Ora: 01:40 (14:40 UTC)

Prognoză

Raportul a fost făcut în urmă cu 4 ore și 40 de minute, la 10:00 UTC
Prognoză valabilă de la 25 ora 12 UTC la 26 ora 12 UTC
Vânt 4 kt din direcții variabile
Vizibilitate de 10 km sau mai mult
Nori fragmentați la o înălțime de 2000 picior
Total acoperit la o înălțime de 11000 picior
Probabilitate 30%
între IN și TE UTC
Vizibilitate: 9000 m
Nori puțini la o înălțime de 1000 picior
Nori fragmentați la o înălțime de 1800 picior
Total acoperit la o înălțime de 9000 picior
averse de ploaie slabă

TAF: NVSL 251000Z 2512/2612 VRB04KT 9999 BKN020 OVC110 PROB30 INTER 2512/2518 9000 -SHRA FEW010 BKN018 OVC090

Observații și prognoze meteo pentru peste 4.000 de aeroporturi (rapoarte METAR și TAF).

Stațiile disponibile sunt reprezentate pe hartă prin puncte galbene și roșii.

Țineți indicatorul mouse-ului pe punctul dorit pentru a vedea denumirea stației.

Apoi, faceți clic pentru a vedea observațiile și prognozele meteorologice.

Pentru a schimba harta: Pentru mărire, faceți clic pe butoanele verzi cu cruce neagră; pentru micșorare, pe butonul verde cu o liniuță; pentru hărți învecinate, pe săgețile verzi.


METAR-TAF: